sensor_id;sensor_type;location;lat;lon;timestamp;P1;durP1;ratioP1;P2;durP2;ratioP2
57441;SDS011;43284;47.042;15.498;2023-04-15T00:01:03;3.13;;;1.15;;
57441;SDS011;43284;47.042;15.498;2023-04-15T00:03:29;2.65;;;0.80;;
57441;SDS011;43284;47.042;15.498;2023-04-15T00:05:56;0.50;;;0.50;;
57441;SDS011;43284;47.042;15.498;2023-04-15T00:08:22;2.40;;;0.68;;
57441;SDS011;43284;47.042;15.498;2023-04-15T00:10:47;1.23;;;0.77;;
57441;SDS011;43284;47.042;15.498;2023-04-15T00:13:13;0.98;;;0.65;;
57441;SDS011;43284;47.042;15.498;2023-04-15T00:15:39;0.95;;;0.60;;
57441;SDS011;43284;47.042;15.498;2023-04-15T00:18:05;0.68;;;0.60;;
57441;SDS011;43284;47.042;15.498;2023-04-15T00:20:32;1.10;;;0.93;;
57441;SDS011;43284;47.042;15.498;2023-04-15T00:22:58;0.75;;;0.60;;
57441;SDS011;43284;47.042;15.498;2023-04-15T00:25:24;1.00;;;0.73;;
57441;SDS011;43284;47.042;15.498;2023-04-15T00:27:50;1.58;;;0.80;;
57441;SDS011;43284;47.042;15.498;2023-04-15T00:30:15;0.68;;;0.60;;
57441;SDS011;43284;47.042;15.498;2023-04-15T00:32:41;1.70;;;1.10;;
57441;SDS011;43284;47.042;15.498;2023-04-15T00:35:07;1.13;;;0.75;;
57441;SDS011;43284;47.042;15.498;2023-04-15T00:37:33;1.05;;;0.80;;
57441;SDS011;43284;47.042;15.498;2023-04-15T00:39:59;0.60;;;0.57;;
57441;SDS011;43284;47.042;15.498;2023-04-15T00:42:25;0.88;;;0.68;;
57441;SDS011;43284;47.042;15.498;2023-04-15T00:44:51;0.65;;;0.65;;
57441;SDS011;43284;47.042;15.498;2023-04-15T00:47:17;2.10;;;0.88;;
57441;SDS011;43284;47.042;15.498;2023-04-15T00:49:44;1.40;;;0.80;;
57441;SDS011;43284;47.042;15.498;2023-04-15T00:52:09;1.55;;;0.85;;
57441;SDS011;43284;47.042;15.498;2023-04-15T00:54:35;1.27;;;0.65;;
57441;SDS011;43284;47.042;15.498;2023-04-15T00:57:01;0.63;;;0.60;;
57441;SDS011;43284;47.042;15.498;2023-04-15T00:59:30;1.98;;;0.70;;
57441;SDS011;43284;47.042;15.498;2023-04-15T01:01:57;6.53;;;1.02;;
57441;SDS011;43284;47.042;15.498;2023-04-15T01:04:23;9.65;;;3.45;;
57441;SDS011;43284;47.042;15.498;2023-04-15T01:06:49;4.68;;;2.40;;
57441;SDS011;43284;47.042;15.498;2023-04-15T01:09:15;2.95;;;2.20;;
57441;SDS011;43284;47.042;15.498;2023-04-15T01:11:41;1.83;;;1.30;;
57441;SDS011;43284;47.042;15.498;2023-04-15T01:14:07;1.95;;;1.08;;
57441;SDS011;43284;47.042;15.498;2023-04-15T01:16:34;1.70;;;1.10;;
57441;SDS011;43284;47.042;15.498;2023-04-15T01:19:04;1.65;;;0.95;;
57441;SDS011;43284;47.042;15.498;2023-04-15T01:21:35;1.15;;;1.00;;
57441;SDS011;43284;47.042;15.498;2023-04-15T01:24:02;1.40;;;0.98;;
57441;SDS011;43284;47.042;15.498;2023-04-15T01:26:34;3.33;;;1.10;;
57441;SDS011;43284;47.042;15.498;2023-04-15T01:29:01;1.75;;;1.30;;
57441;SDS011;43284;47.042;15.498;2023-04-15T01:31:27;1.40;;;1.20;;
57441;SDS011;43284;47.042;15.498;2023-04-15T01:33:53;1.85;;;1.10;;
57441;SDS011;43284;47.042;15.498;2023-04-15T01:36:18;1.20;;;0.70;;
57441;SDS011;43284;47.042;15.498;2023-04-15T01:38:43;0.60;;;0.60;;
57441;SDS011;43284;47.042;15.498;2023-04-15T01:41:09;1.60;;;1.00;;
57441;SDS011;43284;47.042;15.498;2023-04-15T01:43:35;1.55;;;0.95;;
57441;SDS011;43284;47.042;15.498;2023-04-15T01:46:03;2.13;;;1.35;;
57441;SDS011;43284;47.042;15.498;2023-04-15T01:48:30;1.25;;;1.10;;
57441;SDS011;43284;47.042;15.498;2023-04-15T01:50:58;3.55;;;1.02;;
57441;SDS011;43284;47.042;15.498;2023-04-15T01:53:24;3.28;;;1.58;;
57441;SDS011;43284;47.042;15.498;2023-04-15T01:55:50;1.73;;;1.15;;
57441;SDS011;43284;47.042;15.498;2023-04-15T01:58:16;6.38;;;1.30;;
57441;SDS011;43284;47.042;15.498;2023-04-15T02:00:42;1.70;;;1.23;;
57441;SDS011;43284;47.042;15.498;2023-04-15T02:03:08;2.65;;;1.20;;
57441;SDS011;43284;47.042;15.498;2023-04-15T02:05:34;1.85;;;1.27;;
57441;SDS011;43284;47.042;15.498;2023-04-15T02:08:00;1.63;;;1.25;;
57441;SDS011;43284;47.042;15.498;2023-04-15T02:10:25;2.20;;;1.08;;
57441;SDS011;43284;47.042;15.498;2023-04-15T02:12:51;1.35;;;1.13;;
57441;SDS011;43284;47.042;15.498;2023-04-15T02:15:18;1.70;;;1.30;;
57441;SDS011;43284;47.042;15.498;2023-04-15T02:17:44;3.03;;;1.40;;
57441;SDS011;43284;47.042;15.498;2023-04-15T02:20:14;2.20;;;1.48;;
57441;SDS011;43284;47.042;15.498;2023-04-15T02:22:41;3.42;;;1.00;;
57441;SDS011;43284;47.042;15.498;2023-04-15T02:25:07;1.42;;;1.15;;
57441;SDS011;43284;47.042;15.498;2023-04-15T02:27:34;1.55;;;1.25;;
57441;SDS011;43284;47.042;15.498;2023-04-15T02:30:00;1.50;;;1.35;;
57441;SDS011;43284;47.042;15.498;2023-04-15T02:32:26;1.27;;;1.05;;
57441;SDS011;43284;47.042;15.498;2023-04-15T02:34:52;4.25;;;1.20;;
57441;SDS011;43284;47.042;15.498;2023-04-15T02:37:18;2.38;;;1.50;;
57441;SDS011;43284;47.042;15.498;2023-04-15T02:39:44;1.92;;;1.27;;
57441;SDS011;43284;47.042;15.498;2023-04-15T02:42:10;4.43;;;1.40;;
57441;SDS011;43284;47.042;15.498;2023-04-15T02:44:36;2.80;;;1.45;;
57441;SDS011;43284;47.042;15.498;2023-04-15T02:47:01;2.08;;;1.40;;
57441;SDS011;43284;47.042;15.498;2023-04-15T02:49:28;1.88;;;1.40;;
57441;SDS011;43284;47.042;15.498;2023-04-15T02:51:55;1.92;;;1.40;;
57441;SDS011;43284;47.042;15.498;2023-04-15T02:54:22;2.03;;;1.48;;
57441;SDS011;43284;47.042;15.498;2023-04-15T02:56:49;4.07;;;1.40;;
57441;SDS011;43284;47.042;15.498;2023-04-15T02:59:16;44.08;;;11.35;;
57441;SDS011;43284;47.042;15.498;2023-04-15T03:01:41;17.40;;;6.03;;
57441;SDS011;43284;47.042;15.498;2023-04-15T03:04:07;3.17;;;1.70;;
57441;SDS011;43284;47.042;15.498;2023-04-15T03:06:33;2.78;;;1.60;;
57441;SDS011;43284;47.042;15.498;2023-04-15T03:08:59;2.22;;;1.48;;
57441;SDS011;43284;47.042;15.498;2023-04-15T03:11:26;2.08;;;1.35;;
57441;SDS011;43284;47.042;15.498;2023-04-15T03:13:52;2.20;;;1.30;;
57441;SDS011;43284;47.042;15.498;2023-04-15T03:16:18;2.45;;;1.25;;
57441;SDS011;43284;47.042;15.498;2023-04-15T03:18:43;1.85;;;1.10;;
57441;SDS011;43284;47.042;15.498;2023-04-15T03:21:09;3.42;;;1.27;;
57441;SDS011;43284;47.042;15.498;2023-04-15T03:23:34;1.70;;;1.42;;
57441;SDS011;43284;47.042;15.498;2023-04-15T03:26:03;2.47;;;1.13;;
57441;SDS011;43284;47.042;15.498;2023-04-15T03:28:29;2.33;;;1.40;;
57441;SDS011;43284;47.042;15.498;2023-04-15T03:30:55;2.75;;;1.30;;
57441;SDS011;43284;47.042;15.498;2023-04-15T03:33:21;4.63;;;1.75;;
57441;SDS011;43284;47.042;15.498;2023-04-15T03:35:46;2.40;;;1.60;;
57441;SDS011;43284;47.042;15.498;2023-04-15T03:38:12;2.03;;;1.35;;
57441;SDS011;43284;47.042;15.498;2023-04-15T03:40:39;2.40;;;1.30;;
57441;SDS011;43284;47.042;15.498;2023-04-15T03:43:05;1.65;;;1.20;;
57441;SDS011;43284;47.042;15.498;2023-04-15T03:45:31;2.03;;;1.33;;
57441;SDS011;43284;47.042;15.498;2023-04-15T03:47:57;5.40;;;1.40;;
57441;SDS011;43284;47.042;15.498;2023-04-15T03:50:22;1.80;;;1.30;;
57441;SDS011;43284;47.042;15.498;2023-04-15T03:52:48;3.45;;;1.27;;
57441;SDS011;43284;47.042;15.498;2023-04-15T03:55:13;2.22;;;1.50;;
57441;SDS011;43284;47.042;15.498;2023-04-15T03:57:39;1.38;;;1.13;;
57441;SDS011;43284;47.042;15.498;2023-04-15T04:00:05;1.48;;;1.38;;
57441;SDS011;43284;47.042;15.498;2023-04-15T04:02:33;7.65;;;2.08;;
57441;SDS011;43284;47.042;15.498;2023-04-15T04:04:58;6.20;;;1.92;;
57441;SDS011;43284;47.042;15.498;2023-04-15T04:07:24;2.85;;;1.40;;
57441;SDS011;43284;47.042;15.498;2023-04-15T04:09:50;6.05;;;2.53;;
57441;SDS011;43284;47.042;15.498;2023-04-15T04:12:16;2.10;;;1.45;;
57441;SDS011;43284;47.042;15.498;2023-04-15T04:14:41;2.53;;;1.60;;
57441;SDS011;43284;47.042;15.498;2023-04-15T04:17:07;3.70;;;1.52;;
57441;SDS011;43284;47.042;15.498;2023-04-15T04:19:32;2.25;;;1.40;;
57441;SDS011;43284;47.042;15.498;2023-04-15T04:21:58;3.80;;;1.83;;
57441;SDS011;43284;47.042;15.498;2023-04-15T04:24:24;2.13;;;1.30;;
57441;SDS011;43284;47.042;15.498;2023-04-15T04:26:49;3.45;;;1.50;;
57441;SDS011;43284;47.042;15.498;2023-04-15T04:29:15;2.13;;;1.50;;
57441;SDS011;43284;47.042;15.498;2023-04-15T04:31:40;2.20;;;1.48;;
57441;SDS011;43284;47.042;15.498;2023-04-15T04:34:06;1.50;;;1.27;;
57441;SDS011;43284;47.042;15.498;2023-04-15T04:36:31;2.47;;;1.33;;
57441;SDS011;43284;47.042;15.498;2023-04-15T04:38:57;2.47;;;1.65;;
57441;SDS011;43284;47.042;15.498;2023-04-15T04:41:22;5.47;;;1.88;;
57441;SDS011;43284;47.042;15.498;2023-04-15T04:43:48;3.17;;;1.77;;
57441;SDS011;43284;47.042;15.498;2023-04-15T04:46:13;1.88;;;1.13;;
57441;SDS011;43284;47.042;15.498;2023-04-15T04:48:39;3.05;;;1.80;;
57441;SDS011;43284;47.042;15.498;2023-04-15T04:51:05;1.90;;;1.52;;
57441;SDS011;43284;47.042;15.498;2023-04-15T04:53:31;2.63;;;1.60;;
57441;SDS011;43284;47.042;15.498;2023-04-15T04:55:57;3.53;;;2.13;;
57441;SDS011;43284;47.042;15.498;2023-04-15T04:58:23;2.70;;;2.17;;
57441;SDS011;43284;47.042;15.498;2023-04-15T05:00:48;3.40;;;2.25;;
57441;SDS011;43284;47.042;15.498;2023-04-15T05:03:14;3.55;;;2.10;;
57441;SDS011;43284;47.042;15.498;2023-04-15T05:05:39;2.40;;;1.45;;
57441;SDS011;43284;47.042;15.498;2023-04-15T05:08:05;3.10;;;2.20;;
57441;SDS011;43284;47.042;15.498;2023-04-15T05:10:31;2.40;;;1.67;;
57441;SDS011;43284;47.042;15.498;2023-04-15T05:12:57;5.82;;;2.08;;
57441;SDS011;43284;47.042;15.498;2023-04-15T05:15:22;5.80;;;2.03;;
57441;SDS011;43284;47.042;15.498;2023-04-15T05:17:48;2.88;;;1.70;;
57441;SDS011;43284;47.042;15.498;2023-04-15T05:20:14;2.53;;;1.75;;
57441;SDS011;43284;47.042;15.498;2023-04-15T05:22:39;1.83;;;1.42;;
57441;SDS011;43284;47.042;15.498;2023-04-15T05:25:05;6.18;;;2.15;;
57441;SDS011;43284;47.042;15.498;2023-04-15T05:27:31;2.40;;;2.00;;
57441;SDS011;43284;47.042;15.498;2023-04-15T05:29:57;4.97;;;2.10;;
57441;SDS011;43284;47.042;15.498;2023-04-15T05:32:22;3.00;;;2.13;;
57441;SDS011;43284;47.042;15.498;2023-04-15T05:34:48;3.05;;;2.10;;
57441;SDS011;43284;47.042;15.498;2023-04-15T05:37:13;3.97;;;2.40;;
57441;SDS011;43284;47.042;15.498;2023-04-15T05:39:39;4.25;;;2.10;;
57441;SDS011;43284;47.042;15.498;2023-04-15T05:42:05;3.75;;;2.33;;
57441;SDS011;43284;47.042;15.498;2023-04-15T05:44:30;3.78;;;2.05;;
57441;SDS011;43284;47.042;15.498;2023-04-15T05:46:56;3.63;;;2.45;;
57441;SDS011;43284;47.042;15.498;2023-04-15T05:49:22;3.70;;;2.10;;
57441;SDS011;43284;47.042;15.498;2023-04-15T05:51:47;3.58;;;2.08;;
57441;SDS011;43284;47.042;15.498;2023-04-15T05:54:13;3.10;;;1.98;;
57441;SDS011;43284;47.042;15.498;2023-04-15T05:56:39;2.88;;;1.90;;
57441;SDS011;43284;47.042;15.498;2023-04-15T05:59:04;5.65;;;2.20;;
57441;SDS011;43284;47.042;15.498;2023-04-15T06:01:30;5.00;;;2.58;;
57441;SDS011;43284;47.042;15.498;2023-04-15T06:03:57;4.07;;;2.80;;
57441;SDS011;43284;47.042;15.498;2023-04-15T06:06:23;7.65;;;4.97;;
57441;SDS011;43284;47.042;15.498;2023-04-15T06:08:49;7.10;;;5.40;;
57441;SDS011;43284;47.042;15.498;2023-04-15T06:11:14;7.38;;;4.72;;
57441;SDS011;43284;47.042;15.498;2023-04-15T06:13:40;7.30;;;4.00;;
57441;SDS011;43284;47.042;15.498;2023-04-15T06:16:06;6.15;;;3.30;;
57441;SDS011;43284;47.042;15.498;2023-04-15T06:18:32;7.40;;;4.38;;
57441;SDS011;43284;47.042;15.498;2023-04-15T06:20:57;9.27;;;4.57;;
57441;SDS011;43284;47.042;15.498;2023-04-15T06:23:23;6.65;;;3.60;;
57441;SDS011;43284;47.042;15.498;2023-04-15T06:25:48;5.97;;;3.53;;
57441;SDS011;43284;47.042;15.498;2023-04-15T06:28:14;6.18;;;3.90;;
57441;SDS011;43284;47.042;15.498;2023-04-15T06:30:39;6.47;;;3.38;;
57441;SDS011;43284;47.042;15.498;2023-04-15T06:33:05;5.80;;;3.95;;
57441;SDS011;43284;47.042;15.498;2023-04-15T06:35:31;7.57;;;4.10;;
57441;SDS011;43284;47.042;15.498;2023-04-15T06:37:56;6.22;;;3.20;;
57441;SDS011;43284;47.042;15.498;2023-04-15T06:40:22;5.07;;;3.42;;
57441;SDS011;43284;47.042;15.498;2023-04-15T06:42:56;5.43;;;3.10;;
57441;SDS011;43284;47.042;15.498;2023-04-15T06:45:34;5.43;;;3.47;;
57441;SDS011;43284;47.042;15.498;2023-04-15T06:48:00;4.32;;;3.08;;
57441;SDS011;43284;47.042;15.498;2023-04-15T06:50:26;5.03;;;3.50;;
57441;SDS011;43284;47.042;15.498;2023-04-15T06:52:52;7.57;;;3.80;;
57441;SDS011;43284;47.042;15.498;2023-04-15T06:55:18;5.95;;;3.15;;
57441;SDS011;43284;47.042;15.498;2023-04-15T06:57:44;6.15;;;3.45;;
57441;SDS011;43284;47.042;15.498;2023-04-15T07:00:10;8.23;;;3.80;;
57441;SDS011;43284;47.042;15.498;2023-04-15T07:02:36;6.75;;;3.67;;
57441;SDS011;43284;47.042;15.498;2023-04-15T07:05:02;6.97;;;3.50;;
57441;SDS011;43284;47.042;15.498;2023-04-15T07:07:28;7.88;;;3.90;;
57441;SDS011;43284;47.042;15.498;2023-04-15T07:09:54;4.72;;;3.30;;
57441;SDS011;43284;47.042;15.498;2023-04-15T07:12:20;5.35;;;3.28;;
57441;SDS011;43284;47.042;15.498;2023-04-15T07:14:46;6.88;;;3.55;;
57441;SDS011;43284;47.042;15.498;2023-04-15T07:17:11;5.85;;;3.75;;
57441;SDS011;43284;47.042;15.498;2023-04-15T07:19:37;12.27;;;4.32;;
57441;SDS011;43284;47.042;15.498;2023-04-15T07:22:03;7.75;;;4.20;;
57441;SDS011;43284;47.042;15.498;2023-04-15T07:24:28;35.15;;;15.15;;
57441;SDS011;43284;47.042;15.498;2023-04-15T07:26:54;7.82;;;4.95;;
57441;SDS011;43284;47.042;15.498;2023-04-15T07:29:23;5.22;;;3.35;;
57441;SDS011;43284;47.042;15.498;2023-04-15T07:31:50;5.90;;;3.72;;
57441;SDS011;43284;47.042;15.498;2023-04-15T07:34:15;5.70;;;3.10;;
57441;SDS011;43284;47.042;15.498;2023-04-15T07:36:41;5.75;;;3.22;;
57441;SDS011;43284;47.042;15.498;2023-04-15T07:39:07;8.15;;;5.00;;
57441;SDS011;43284;47.042;15.498;2023-04-15T07:41:33;6.90;;;4.82;;
57441;SDS011;43284;47.042;15.498;2023-04-15T07:43:58;6.72;;;4.38;;
57441;SDS011;43284;47.042;15.498;2023-04-15T07:46:24;9.70;;;3.70;;
57441;SDS011;43284;47.042;15.498;2023-04-15T07:48:51;7.00;;;4.00;;
57441;SDS011;43284;47.042;15.498;2023-04-15T07:51:17;6.22;;;3.72;;
57441;SDS011;43284;47.042;15.498;2023-04-15T07:53:45;11.43;;;5.15;;
57441;SDS011;43284;47.042;15.498;2023-04-15T07:56:11;10.02;;;5.28;;
57441;SDS011;43284;47.042;15.498;2023-04-15T07:58:37;11.93;;;5.90;;
57441;SDS011;43284;47.042;15.498;2023-04-15T08:01:03;9.60;;;4.90;;
57441;SDS011;43284;47.042;15.498;2023-04-15T08:03:29;7.88;;;3.75;;
57441;SDS011;43284;47.042;15.498;2023-04-15T08:05:55;6.18;;;3.88;;
57441;SDS011;43284;47.042;15.498;2023-04-15T08:08:20;5.53;;;4.18;;
57441;SDS011;43284;47.042;15.498;2023-04-15T08:10:46;6.78;;;3.92;;
57441;SDS011;43284;47.042;15.498;2023-04-15T08:13:12;4.20;;;2.65;;
57441;SDS011;43284;47.042;15.498;2023-04-15T08:15:37;6.70;;;2.83;;
57441;SDS011;43284;47.042;15.498;2023-04-15T08:18:03;4.05;;;2.63;;
57441;SDS011;43284;47.042;15.498;2023-04-15T08:20:28;6.10;;;3.40;;
57441;SDS011;43284;47.042;15.498;2023-04-15T08:22:54;9.98;;;3.28;;
57441;SDS011;43284;47.042;15.498;2023-04-15T08:25:20;2.90;;;2.40;;
57441;SDS011;43284;47.042;15.498;2023-04-15T08:27:45;3.75;;;2.28;;
57441;SDS011;43284;47.042;15.498;2023-04-15T08:30:11;3.63;;;2.70;;
57441;SDS011;43284;47.042;15.498;2023-04-15T08:32:37;4.57;;;2.60;;
57441;SDS011;43284;47.042;15.498;2023-04-15T08:35:02;5.10;;;2.75;;
57441;SDS011;43284;47.042;15.498;2023-04-15T08:37:28;3.88;;;2.78;;
57441;SDS011;43284;47.042;15.498;2023-04-15T08:39:53;4.28;;;2.70;;
57441;SDS011;43284;47.042;15.498;2023-04-15T08:42:22;3.53;;;2.35;;
57441;SDS011;43284;47.042;15.498;2023-04-15T08:44:52;6.38;;;2.50;;
57441;SDS011;43284;47.042;15.498;2023-04-15T08:47:19;2.55;;;1.88;;
57441;SDS011;43284;47.042;15.498;2023-04-15T08:49:46;4.40;;;2.20;;
57441;SDS011;43284;47.042;15.498;2023-04-15T08:52:17;3.95;;;2.30;;
57441;SDS011;43284;47.042;15.498;2023-04-15T08:54:43;2.83;;;1.98;;
57441;SDS011;43284;47.042;15.498;2023-04-15T08:57:09;5.05;;;2.10;;
57441;SDS011;43284;47.042;15.498;2023-04-15T08:59:35;3.88;;;2.45;;
57441;SDS011;43284;47.042;15.498;2023-04-15T09:02:02;4.15;;;2.80;;
57441;SDS011;43284;47.042;15.498;2023-04-15T09:04:28;3.35;;;2.10;;
57441;SDS011;43284;47.042;15.498;2023-04-15T09:06:53;1.90;;;1.65;;
57441;SDS011;43284;47.042;15.498;2023-04-15T09:09:19;3.30;;;2.40;;
57441;SDS011;43284;47.042;15.498;2023-04-15T09:11:44;2.33;;;1.92;;
57441;SDS011;43284;47.042;15.498;2023-04-15T09:14:10;3.58;;;2.15;;
57441;SDS011;43284;47.042;15.498;2023-04-15T09:19:24;5.78;;;2.47;;
57441;SDS011;43284;47.042;15.498;2023-04-15T09:21:54;3.33;;;2.20;;
57441;SDS011;43284;47.042;15.498;2023-04-15T09:24:21;3.40;;;1.73;;
57441;SDS011;43284;47.042;15.498;2023-04-15T09:26:47;2.63;;;1.75;;
57441;SDS011;43284;47.042;15.498;2023-04-15T09:29:17;2.60;;;1.80;;
57441;SDS011;43284;47.042;15.498;2023-04-15T09:31:42;2.00;;;1.60;;
57441;SDS011;43284;47.042;15.498;2023-04-15T09:34:08;3.85;;;1.88;;
57441;SDS011;43284;47.042;15.498;2023-04-15T09:39:12;2.15;;;1.75;;
57441;SDS011;43284;47.042;15.498;2023-04-15T09:41:38;2.85;;;1.90;;
57441;SDS011;43284;47.042;15.498;2023-04-15T09:44:05;3.08;;;1.90;;
57441;SDS011;43284;47.042;15.498;2023-04-15T09:46:43;1.88;;;1.48;;
57441;SDS011;43284;47.042;15.498;2023-04-15T09:49:10;3.38;;;1.60;;
57441;SDS011;43284;47.042;15.498;2023-04-15T09:51:37;2.35;;;1.65;;
57441;SDS011;43284;47.042;15.498;2023-04-15T09:54:03;4.15;;;1.88;;
57441;SDS011;43284;47.042;15.498;2023-04-15T09:56:36;4.68;;;2.63;;
57441;SDS011;43284;47.042;15.498;2023-04-15T09:59:05;1.92;;;1.75;;
57441;SDS011;43284;47.042;15.498;2023-04-15T10:01:31;2.65;;;1.92;;
57441;SDS011;43284;47.042;15.498;2023-04-15T10:03:57;3.38;;;2.10;;
57441;SDS011;43284;47.042;15.498;2023-04-15T10:06:26;5.15;;;2.33;;
57441;SDS011;43284;47.042;15.498;2023-04-15T10:08:53;4.45;;;1.95;;
57441;SDS011;43284;47.042;15.498;2023-04-15T10:11:20;3.40;;;1.85;;
57441;SDS011;43284;47.042;15.498;2023-04-15T10:13:48;3.17;;;1.73;;
57441;SDS011;43284;47.042;15.498;2023-04-15T10:16:15;3.10;;;2.20;;
57441;SDS011;43284;47.042;15.498;2023-04-15T10:18:44;2.33;;;1.70;;
57441;SDS011;43284;47.042;15.498;2023-04-15T10:21:11;2.92;;;1.95;;
57441;SDS011;43284;47.042;15.498;2023-04-15T10:23:42;3.13;;;1.90;;
57441;SDS011;43284;47.042;15.498;2023-04-15T10:26:10;3.65;;;2.10;;
57441;SDS011;43284;47.042;15.498;2023-04-15T10:28:38;3.05;;;2.15;;
57441;SDS011;43284;47.042;15.498;2023-04-15T10:31:04;7.60;;;4.05;;
57441;SDS011;43284;47.042;15.498;2023-04-15T10:33:30;5.10;;;2.22;;
57441;SDS011;43284;47.042;15.498;2023-04-15T10:35:56;1.75;;;1.55;;
57441;SDS011;43284;47.042;15.498;2023-04-15T10:38:36;4.57;;;1.92;;
57441;SDS011;43284;47.042;15.498;2023-04-15T10:41:17;2.13;;;1.55;;
57441;SDS011;43284;47.042;15.498;2023-04-15T10:43:48;5.13;;;1.90;;
57441;SDS011;43284;47.042;15.498;2023-04-15T10:46:23;2.13;;;1.92;;
57441;SDS011;43284;47.042;15.498;2023-04-15T10:49:15;2.25;;;1.80;;
57441;SDS011;43284;47.042;15.498;2023-04-15T10:51:57;4.05;;;1.55;;
57441;SDS011;43284;47.042;15.498;2023-04-15T11:00:15;4.93;;;1.90;;
57441;SDS011;43284;47.042;15.498;2023-04-15T11:02:44;2.55;;;1.70;;
57441;SDS011;43284;47.042;15.498;2023-04-15T11:05:17;2.15;;;1.95;;
57441;SDS011;43284;47.042;15.498;2023-04-15T11:12:38;2.47;;;1.40;;
57441;SDS011;43284;47.042;15.498;2023-04-15T11:20:45;3.75;;;1.70;;
57441;SDS011;43284;47.042;15.498;2023-04-15T11:23:34;3.22;;;1.80;;
57441;SDS011;43284;47.042;15.498;2023-04-15T11:26:04;3.00;;;1.70;;
57441;SDS011;43284;47.042;15.498;2023-04-15T11:28:33;2.88;;;1.70;;
57441;SDS011;43284;47.042;15.498;2023-04-15T11:31:09;5.00;;;1.77;;
57441;SDS011;43284;47.042;15.498;2023-04-15T11:33:46;2.92;;;2.15;;
57441;SDS011;43284;47.042;15.498;2023-04-15T11:36:19;3.08;;;1.90;;
57441;SDS011;43284;47.042;15.498;2023-04-15T11:38:47;2.53;;;1.85;;
57441;SDS011;43284;47.042;15.498;2023-04-15T11:41:13;2.83;;;1.70;;
57441;SDS011;43284;47.042;15.498;2023-04-15T11:43:39;3.67;;;1.77;;
57441;SDS011;43284;47.042;15.498;2023-04-15T11:46:04;2.85;;;2.08;;
57441;SDS011;43284;47.042;15.498;2023-04-15T11:48:34;3.72;;;2.20;;
57441;SDS011;43284;47.042;15.498;2023-04-15T11:51:04;2.28;;;1.63;;
57441;SDS011;43284;47.042;15.498;2023-04-15T11:53:38;2.70;;;1.80;;
57441;SDS011;43284;47.042;15.498;2023-04-15T11:56:20;2.53;;;1.77;;
57441;SDS011;43284;47.042;15.498;2023-04-15T11:58:47;3.13;;;2.10;;
57441;SDS011;43284;47.042;15.498;2023-04-15T12:01:16;4.35;;;2.10;;
57441;SDS011;43284;47.042;15.498;2023-04-15T12:03:43;3.13;;;1.88;;
57441;SDS011;43284;47.042;15.498;2023-04-15T12:06:12;6.18;;;1.92;;
57441;SDS011;43284;47.042;15.498;2023-04-15T12:11:38;2.60;;;1.75;;
57441;SDS011;43284;47.042;15.498;2023-04-15T12:14:10;2.58;;;1.90;;
57441;SDS011;43284;47.042;15.498;2023-04-15T12:16:50;4.18;;;1.98;;
57441;SDS011;43284;47.042;15.498;2023-04-15T12:19:21;2.25;;;1.80;;
57441;SDS011;43284;47.042;15.498;2023-04-15T12:22:12;2.90;;;1.70;;
57441;SDS011;43284;47.042;15.498;2023-04-15T12:24:39;3.25;;;1.80;;
57441;SDS011;43284;47.042;15.498;2023-04-15T12:27:09;3.05;;;1.88;;
57441;SDS011;43284;47.042;15.498;2023-04-15T12:29:36;2.92;;;1.75;;
57441;SDS011;43284;47.042;15.498;2023-04-15T12:32:10;2.38;;;1.73;;
57441;SDS011;43284;47.042;15.498;2023-04-15T12:37:07;7.57;;;1.63;;
57441;SDS011;43284;47.042;15.498;2023-04-15T12:39:35;2.45;;;1.48;;
57441;SDS011;43284;47.042;15.498;2023-04-15T12:42:03;2.63;;;1.55;;
57441;SDS011;43284;47.042;15.498;2023-04-15T12:44:30;2.78;;;1.25;;
57441;SDS011;43284;47.042;15.498;2023-04-15T12:46:57;2.30;;;1.40;;
57441;SDS011;43284;47.042;15.498;2023-04-15T12:49:24;2.45;;;1.42;;
57441;SDS011;43284;47.042;15.498;2023-04-15T12:51:54;1.58;;;0.95;;
57441;SDS011;43284;47.042;15.498;2023-04-15T12:54:21;3.08;;;2.22;;
57441;SDS011;43284;47.042;15.498;2023-04-15T12:56:48;1.42;;;1.30;;
57441;SDS011;43284;47.042;15.498;2023-04-15T12:59:15;1.70;;;1.40;;
57441;SDS011;43284;47.042;15.498;2023-04-15T13:01:42;2.53;;;1.15;;
57441;SDS011;43284;47.042;15.498;2023-04-15T13:04:08;3.00;;;1.60;;
57441;SDS011;43284;47.042;15.498;2023-04-15T13:06:34;2.97;;;1.40;;
57441;SDS011;43284;47.042;15.498;2023-04-15T13:08:59;4.18;;;1.65;;
57441;SDS011;43284;47.042;15.498;2023-04-15T13:11:25;1.63;;;0.90;;
57441;SDS011;43284;47.042;15.498;2023-04-15T13:13:53;3.92;;;1.40;;
57441;SDS011;43284;47.042;15.498;2023-04-15T13:16:19;2.42;;;2.08;;
57441;SDS011;43284;47.042;15.498;2023-04-15T13:18:45;2.22;;;1.25;;
57441;SDS011;43284;47.042;15.498;2023-04-15T13:21:12;2.65;;;1.35;;
57441;SDS011;43284;47.042;15.498;2023-04-15T13:23:37;1.02;;;0.85;;
57441;SDS011;43284;47.042;15.498;2023-04-15T13:26:03;0.98;;;0.80;;
57441;SDS011;43284;47.042;15.498;2023-04-15T13:28:28;1.90;;;1.10;;
57441;SDS011;43284;47.042;15.498;2023-04-15T13:30:54;1.38;;;1.02;;
57441;SDS011;43284;47.042;15.498;2023-04-15T13:33:20;1.17;;;0.93;;
57441;SDS011;43284;47.042;15.498;2023-04-15T13:35:45;1.95;;;1.25;;
57441;SDS011;43284;47.042;15.498;2023-04-15T13:38:11;2.00;;;1.35;;
57441;SDS011;43284;47.042;15.498;2023-04-15T13:40:36;2.95;;;1.55;;
57441;SDS011;43284;47.042;15.498;2023-04-15T13:43:02;2.17;;;1.08;;
57441;SDS011;43284;47.042;15.498;2023-04-15T13:45:28;1.92;;;1.30;;
57441;SDS011;43284;47.042;15.498;2023-04-15T13:47:55;3.08;;;1.40;;
57441;SDS011;43284;47.042;15.498;2023-04-15T13:50:23;2.30;;;1.33;;
57441;SDS011;43284;47.042;15.498;2023-04-15T13:52:49;2.25;;;1.40;;
57441;SDS011;43284;47.042;15.498;2023-04-15T13:55:14;3.78;;;1.50;;
57441;SDS011;43284;47.042;15.498;2023-04-15T13:57:40;1.55;;;1.40;;
57441;SDS011;43284;47.042;15.498;2023-04-15T14:00:06;3.92;;;1.65;;
57441;SDS011;43284;47.042;15.498;2023-04-15T14:02:32;3.55;;;1.58;;
57441;SDS011;43284;47.042;15.498;2023-04-15T14:04:57;2.28;;;1.52;;
57441;SDS011;43284;47.042;15.498;2023-04-15T14:07:23;2.25;;;1.35;;
57441;SDS011;43284;47.042;15.498;2023-04-15T14:09:48;1.85;;;1.35;;
57441;SDS011;43284;47.042;15.498;2023-04-15T14:12:14;3.38;;;1.75;;
57441;SDS011;43284;47.042;15.498;2023-04-15T14:14:40;1.88;;;1.33;;
57441;SDS011;43284;47.042;15.498;2023-04-15T14:17:05;1.65;;;1.35;;
57441;SDS011;43284;47.042;15.498;2023-04-15T14:19:32;2.15;;;1.15;;
57441;SDS011;43284;47.042;15.498;2023-04-15T14:21:59;1.35;;;1.02;;
57441;SDS011;43284;47.042;15.498;2023-04-15T14:24:25;1.98;;;0.93;;
57441;SDS011;43284;47.042;15.498;2023-04-15T14:26:51;1.90;;;1.15;;
57441;SDS011;43284;47.042;15.498;2023-04-15T14:29:17;1.90;;;1.20;;
57441;SDS011;43284;47.042;15.498;2023-04-15T14:31:42;1.25;;;0.95;;
57441;SDS011;43284;47.042;15.498;2023-04-15T14:34:09;3.63;;;1.20;;
57441;SDS011;43284;47.042;15.498;2023-04-15T14:36:35;1.95;;;0.98;;
57441;SDS011;43284;47.042;15.498;2023-04-15T14:39:00;3.30;;;1.08;;
57441;SDS011;43284;47.042;15.498;2023-04-15T14:41:28;2.17;;;1.00;;
57441;SDS011;43284;47.042;15.498;2023-04-15T14:43:53;5.50;;;1.00;;
57441;SDS011;43284;47.042;15.498;2023-04-15T14:46:19;1.42;;;0.98;;
57441;SDS011;43284;47.042;15.498;2023-04-15T14:48:45;2.45;;;1.00;;
57441;SDS011;43284;47.042;15.498;2023-04-15T14:51:10;1.23;;;0.95;;
57441;SDS011;43284;47.042;15.498;2023-04-15T14:53:36;2.60;;;1.52;;
57441;SDS011;43284;47.042;15.498;2023-04-15T14:56:01;3.53;;;1.70;;
57441;SDS011;43284;47.042;15.498;2023-04-15T14:58:27;2.00;;;1.10;;